createdAt,value
2017-12-28T00:00:37.452Z,1.90
2017-12-28T00:03:06.441Z,2.50
2017-12-28T00:05:36.764Z,2.07
2017-12-28T00:08:05.652Z,2.80
2017-12-28T00:10:35.368Z,2.50
2017-12-28T00:13:04.438Z,2.63
2017-12-28T00:15:33.668Z,2.57
2017-12-28T00:18:02.557Z,2.13
2017-12-28T00:20:31.499Z,2.47
2017-12-28T00:23:00.948Z,2.80
2017-12-28T00:25:29.939Z,2.30
2017-12-28T00:27:59.010Z,2.40
2017-12-28T00:30:29.367Z,2.70
2017-12-28T00:32:59.329Z,3.10
2017-12-28T00:35:28.063Z,2.50
2017-12-28T00:37:58.268Z,2.30
2017-12-28T00:40:27.293Z,2.43
2017-12-28T00:42:56.173Z,2.37
2017-12-28T00:45:25.170Z,2.53
2017-12-28T00:47:53.958Z,2.53
2017-12-28T00:50:24.354Z,2.47
2017-12-28T00:52:53.350Z,1.90
2017-12-28T00:55:22.673Z,2.40
2017-12-28T00:57:52.079Z,1.93
2017-12-28T01:00:20.968Z,2.23
2017-12-28T01:02:49.873Z,2.37
2017-12-28T01:05:19.367Z,2.20
2017-12-28T01:07:48.320Z,2.23
2017-12-28T01:10:18.795Z,2.47
2017-12-28T01:12:48.697Z,2.20
2017-12-28T01:15:18.050Z,2.30
2017-12-28T01:17:47.716Z,2.40
2017-12-28T01:20:16.601Z,2.03
2017-12-28T01:22:46.105Z,2.17
2017-12-28T01:25:15.209Z,2.27
2017-12-28T01:27:44.166Z,2.50
2017-12-28T01:30:12.882Z,1.90
2017-12-28T01:32:43.272Z,3.33
2017-12-28T01:35:12.672Z,2.00
2017-12-28T01:37:42.502Z,2.37
2017-12-28T01:40:11.721Z,2.57
2017-12-28T01:42:41.227Z,1.93
2017-12-28T01:45:10.282Z,2.77
2017-12-28T01:47:45.162Z,1.90
2017-12-28T01:50:14.184Z,2.07
2017-12-28T01:52:43.398Z,2.40
2017-12-28T01:55:12.337Z,2.10
2017-12-28T01:57:42.564Z,2.47
2017-12-28T02:00:11.347Z,2.40
2017-12-28T02:02:41.056Z,2.17
2017-12-28T02:05:10.255Z,2.30
2017-12-28T02:07:39.454Z,1.97
2017-12-28T02:10:08.248Z,2.57
2017-12-28T02:12:37.785Z,1.90
2017-12-28T02:15:06.845Z,2.00
2017-12-28T02:17:35.635Z,1.90
2017-12-28T02:20:04.684Z,2.20
2017-12-28T02:22:34.548Z,1.70
2017-12-28T02:25:03.338Z,1.97
2017-12-28T02:27:32.424Z,1.73
2017-12-28T02:30:01.753Z,1.97
2017-12-28T02:32:30.733Z,2.37
2017-12-28T02:34:59.716Z,1.80
2017-12-28T02:37:28.704Z,1.90
2017-12-28T02:39:57.499Z,1.97
2017-12-28T02:42:26.488Z,1.80
2017-12-28T02:44:55.890Z,2.00
2017-12-28T02:47:24.682Z,2.10
2017-12-28T02:49:53.571Z,1.73
2017-12-28T02:52:22.570Z,1.90
2017-12-28T02:54:51.539Z,2.87
2017-12-28T02:57:20.726Z,1.63
2017-12-28T02:59:51.431Z,1.70
2017-12-28T03:02:21.715Z,1.87
2017-12-28T03:04:51.021Z,2.07
2017-12-28T03:07:20.485Z,1.70
2017-12-28T03:09:51.072Z,2.03
2017-12-28T03:12:20.537Z,1.93
2017-12-28T03:14:49.445Z,1.80
2017-12-28T03:17:19.347Z,1.97
2017-12-28T03:19:49.881Z,1.80
2017-12-28T03:22:19.706Z,2.20
2017-12-28T03:24:48.598Z,1.73
2017-12-28T03:27:17.389Z,1.77
2017-12-28T03:29:46.989Z,2.13
2017-12-28T03:32:15.779Z,1.83
2017-12-28T03:34:45.596Z,1.80
2017-12-28T03:37:14.275Z,1.90
2017-12-28T03:39:43.167Z,1.60
2017-12-28T03:42:12.369Z,1.70
2017-12-28T03:44:42.382Z,1.70
2017-12-28T03:47:11.277Z,1.80
2017-12-28T03:49:40.165Z,1.87
2017-12-28T03:52:08.952Z,2.10
2017-12-28T03:54:37.742Z,2.80
2017-12-28T03:57:06.427Z,2.00
2017-12-28T03:59:35.216Z,2.00
2017-12-28T04:02:03.902Z,1.87
2017-12-28T04:04:33.405Z,2.23
2017-12-28T04:07:03.732Z,1.97
2017-12-28T04:09:33.645Z,1.83
2017-12-28T04:12:02.537Z,1.50
2017-12-28T04:14:31.225Z,2.13
2017-12-28T04:17:00.021Z,2.23
2017-12-28T04:19:28.807Z,1.70
2017-12-28T04:21:58.305Z,2.10
2017-12-28T04:24:27.202Z,2.30
2017-12-28T04:26:55.926Z,1.93
2017-12-28T04:29:24.671Z,1.67
2017-12-28T04:31:53.723Z,1.80
2017-12-28T04:34:22.354Z,1.80
2017-12-28T04:36:51.244Z,1.97
2017-12-28T04:39:20.198Z,2.00
2017-12-28T04:41:49.899Z,1.80
2017-12-28T04:44:19.142Z,1.93
2017-12-28T04:46:47.870Z,1.63
2017-12-28T04:49:16.617Z,1.90
2017-12-28T04:51:45.304Z,1.80
2017-12-28T04:54:14.399Z,1.80
2017-12-28T04:56:43.194Z,1.60
2017-12-28T04:59:12.392Z,2.20
2017-12-28T05:01:41.854Z,1.80
2017-12-28T05:04:11.091Z,1.87
2017-12-28T05:06:39.645Z,2.33
2017-12-28T05:09:08.639Z,1.70
2017-12-28T05:11:37.615Z,1.80
2017-12-28T05:14:07.271Z,1.70
2017-12-28T05:16:36.217Z,1.93
2017-12-28T05:19:05.278Z,2.03
2017-12-28T05:21:33.942Z,1.80
2017-12-28T05:24:03.449Z,1.80
2017-12-28T05:26:32.192Z,1.80
2017-12-28T05:29:01.023Z,1.70
2017-12-28T05:31:29.713Z,1.97
2017-12-28T05:33:58.804Z,1.80
2017-12-28T05:36:27.595Z,2.00
2017-12-28T05:38:56.486Z,1.80
2017-12-28T05:41:25.175Z,2.03
2017-12-28T05:43:54.020Z,1.97
2017-12-28T05:46:22.967Z,1.57
2017-12-28T05:48:52.561Z,1.97
2017-12-28T05:51:21.864Z,2.20
2017-12-28T05:53:51.174Z,2.03
2017-12-28T05:56:20.259Z,2.30
2017-12-28T05:58:48.969Z,2.20
2017-12-28T06:01:17.782Z,1.93
2017-12-28T06:03:46.568Z,2.10
2017-12-28T06:06:16.026Z,1.80
2017-12-28T06:08:44.716Z,2.40
2017-12-28T06:11:14.735Z,1.90
2017-12-28T06:13:43.620Z,2.27
2017-12-28T06:16:12.819Z,1.97
2017-12-28T06:18:43.249Z,1.67
2017-12-28T06:21:12.243Z,1.57
2017-12-28T06:23:41.443Z,1.93
2017-12-28T06:26:10.200Z,2.13
2017-12-28T06:28:39.119Z,2.20
2017-12-28T06:31:08.010Z,2.40
2017-12-28T06:33:37.107Z,2.50
2017-12-28T06:36:07.430Z,2.00
2017-12-28T06:38:36.157Z,1.70
2017-12-28T06:41:04.903Z,2.07
2017-12-28T06:43:33.999Z,2.10
2017-12-28T06:46:03.506Z,2.50
2017-12-28T06:48:32.262Z,2.03
2017-12-28T06:51:01.902Z,2.60
2017-12-28T06:53:31.717Z,1.93
2017-12-28T06:56:01.221Z,2.20
2017-12-28T06:58:29.906Z,2.23
2017-12-28T07:00:59.410Z,3.00
2017-12-28T07:03:29.125Z,2.23
2017-12-28T07:05:57.807Z,1.97
2017-12-28T07:08:27.927Z,2.07
2017-12-28T07:10:57.230Z,2.00
2017-12-28T07:13:26.736Z,2.00
2017-12-28T07:15:55.624Z,2.90
2017-12-28T07:18:25.745Z,2.27
2017-12-28T07:20:54.432Z,2.03
2017-12-28T07:23:23.637Z,2.10
2017-12-28T07:25:53.649Z,2.37
2017-12-28T07:28:22.335Z,2.00
2017-12-28T07:30:52.557Z,2.13
2017-12-28T07:33:22.058Z,2.70
2017-12-28T07:35:51.154Z,2.40
2017-12-28T07:38:19.945Z,2.53
2017-12-28T07:40:50.369Z,1.97
2017-12-28T07:43:20.393Z,2.70
2017-12-28T07:45:49.072Z,3.03
2017-12-28T07:48:18.786Z,2.20
2017-12-28T07:50:48.978Z,2.03
2017-12-28T07:53:18.106Z,2.40
2017-12-28T07:55:47.773Z,2.00
2017-12-28T07:58:17.321Z,2.67
2017-12-28T08:00:47.436Z,3.57
2017-12-28T08:03:16.944Z,2.83
2017-12-28T08:05:48.189Z,2.37
2017-12-28T08:08:18.232Z,2.90
2017-12-28T08:10:48.225Z,2.90
2017-12-28T08:13:18.654Z,2.67
2017-12-28T08:15:48.566Z,4.60
2017-12-28T08:18:17.959Z,3.63
2017-12-28T08:20:48.492Z,3.43
2017-12-28T08:23:19.136Z,5.20
2017-12-28T08:25:49.949Z,3.53
2017-12-28T08:28:19.238Z,4.33
2017-12-28T08:30:48.876Z,4.90
2017-12-28T08:33:18.207Z,4.00
2017-12-28T08:35:48.092Z,5.17
2017-12-28T08:38:17.901Z,4.33
2017-12-28T08:40:48.238Z,4.27
2017-12-28T08:43:17.274Z,4.30
2017-12-28T08:45:47.137Z,4.87
2017-12-28T08:48:17.218Z,4.80
2017-12-28T08:50:46.764Z,4.37
2017-12-28T08:53:16.182Z,3.53
2017-12-28T08:55:45.764Z,4.23
2017-12-28T08:58:15.509Z,3.80
2017-12-28T09:00:44.627Z,4.10
2017-12-28T09:03:15.009Z,3.87
2017-12-28T09:05:45.533Z,3.43
2017-12-28T09:08:14.225Z,3.10
2017-12-28T09:10:43.481Z,3.23
2017-12-28T09:13:13.495Z,4.10
2017-12-28T09:15:42.633Z,3.27
2017-12-28T09:18:11.534Z,4.27
2017-12-28T09:20:41.847Z,3.37
2017-12-28T09:23:11.354Z,3.53
2017-12-28T09:25:43.112Z,6.40
2017-12-28T09:28:12.413Z,3.77
2017-12-28T09:30:41.204Z,3.47
2017-12-28T09:33:10.708Z,4.60
2017-12-28T09:35:39.498Z,4.13
2017-12-28T09:38:09.183Z,3.53
2017-12-28T09:40:37.900Z,3.70
2017-12-28T09:43:07.909Z,3.60
2017-12-28T09:45:37.733Z,3.40
2017-12-28T09:48:07.745Z,2.75
2017-12-28T09:50:36.748Z,3.83
2017-12-28T09:53:06.038Z,3.57
2017-12-28T09:55:35.537Z,3.93
2017-12-28T09:58:05.720Z,4.23
2017-12-28T10:00:34.760Z,4.50
2017-12-28T10:03:04.468Z,4.10
2017-12-28T10:05:35.715Z,4.50
2017-12-28T10:08:04.509Z,4.13
2017-12-28T10:10:35.117Z,3.60
2017-12-28T10:13:06.179Z,4.60
2017-12-28T10:15:36.298Z,5.83
2017-12-28T10:18:05.798Z,6.50
2017-12-28T10:20:35.814Z,3.80
2017-12-28T10:23:05.120Z,4.07
2017-12-28T10:25:33.804Z,3.43
2017-12-28T10:28:03.267Z,4.53
2017-12-28T10:33:09.430Z,3.70
2017-12-28T10:35:39.709Z,3.80
2017-12-28T10:38:09.669Z,4.20
2017-12-28T10:40:39.642Z,3.80
2017-12-28T10:43:09.760Z,5.30
2017-12-28T10:45:38.857Z,4.80
2017-12-28T10:48:08.362Z,4.83
2017-12-28T10:50:38.377Z,4.83
2017-12-28T10:53:08.602Z,4.60
2017-12-28T10:55:39.130Z,5.17
2017-12-28T10:58:09.249Z,3.70
2017-12-28T11:00:37.834Z,5.00
2017-12-28T11:03:09.905Z,8.50
2017-12-28T11:05:39.815Z,4.30
2017-12-28T11:08:10.035Z,5.10
2017-12-28T11:10:39.030Z,3.97
2017-12-28T11:13:09.157Z,4.67
2017-12-28T11:15:38.515Z,5.00
2017-12-28T11:18:07.649Z,4.83
2017-12-28T11:20:37.767Z,4.67
2017-12-28T11:23:06.556Z,4.07
2017-12-28T11:25:36.368Z,4.00
2017-12-28T11:28:06.691Z,4.20
2017-12-28T11:30:36.661Z,4.00
2017-12-28T11:33:05.807Z,3.77
2017-12-28T11:35:35.170Z,4.27
2017-12-28T11:38:04.927Z,4.30
2017-12-28T11:40:35.331Z,4.10
2017-12-28T11:43:04.960Z,4.40
2017-12-28T11:45:35.186Z,4.80
2017-12-28T11:48:05.296Z,4.07
2017-12-28T11:50:41.051Z,4.57
2017-12-28T11:53:28.066Z,4.67
2017-12-28T11:56:03.101Z,4.87
2017-12-28T11:58:49.093Z,4.10
2017-12-28T12:01:20.094Z,5.90
2017-12-28T12:03:50.834Z,3.80
2017-12-28T12:06:26.374Z,4.60
2017-12-28T12:08:58.140Z,4.40
2017-12-28T12:11:28.393Z,4.57
2017-12-28T12:13:58.209Z,7.23
2017-12-28T12:16:28.634Z,5.70
2017-12-28T12:18:58.651Z,5.10
2017-12-28T12:21:28.526Z,5.60
2017-12-28T12:23:58.485Z,5.37
2017-12-28T12:26:28.361Z,5.33
2017-12-28T12:28:57.391Z,6.00
2017-12-28T12:31:26.179Z,4.90
2017-12-28T12:33:55.792Z,6.40
2017-12-28T12:36:26.010Z,5.90
2017-12-28T12:38:56.082Z,3.00
2017-12-28T12:41:25.429Z,2.83
2017-12-28T12:43:55.752Z,2.33
2017-12-28T12:46:24.381Z,2.20
2017-12-28T12:48:54.662Z,4.40
2017-12-28T12:51:24.064Z,3.10
2017-12-28T12:53:54.289Z,3.00
2017-12-28T12:56:24.509Z,4.33
2017-12-28T12:58:54.833Z,11.53
2017-12-28T13:01:24.851Z,5.20
2017-12-28T13:03:54.973Z,5.27
2017-12-28T13:06:25.195Z,4.80
2017-12-28T13:08:54.741Z,4.00
2017-12-28T13:11:25.023Z,5.33
2017-12-28T13:13:54.118Z,5.07
2017-12-28T13:16:23.724Z,5.77
2017-12-28T13:18:53.335Z,15.27
2017-12-28T13:21:22.949Z,6.27
2017-12-28T13:23:53.265Z,4.97
2017-12-28T13:26:23.334Z,13.20
2017-12-28T13:28:53.507Z,4.27
2017-12-28T13:31:23.017Z,5.13
2017-12-28T13:33:52.621Z,6.37
2017-12-28T13:36:22.330Z,5.77
2017-12-28T13:38:51.526Z,4.50
2017-12-28T13:41:20.678Z,4.10
2017-12-28T13:43:50.545Z,3.70
2017-12-28T13:46:20.773Z,6.20
2017-12-28T13:48:50.677Z,7.10
2017-12-28T13:51:20.284Z,3.23
2017-12-28T13:53:50.410Z,3.90
2017-12-28T13:56:19.719Z,4.00
2017-12-28T13:58:50.026Z,3.30
2017-12-28T14:01:19.431Z,2.47
2017-12-28T14:03:49.658Z,3.00
2017-12-28T14:06:19.058Z,3.93
2017-12-28T14:08:49.281Z,2.23
2017-12-28T14:11:19.297Z,2.97
2017-12-28T14:13:49.780Z,3.47
2017-12-28T14:16:19.229Z,3.30
2017-12-28T14:18:49.248Z,5.13
2017-12-28T14:21:19.476Z,3.57
2017-12-28T14:23:50.713Z,4.80
2017-12-28T14:26:20.797Z,3.30
2017-12-28T14:28:50.340Z,3.80
2017-12-28T14:31:19.844Z,3.10
2017-12-28T14:33:49.808Z,3.10
2017-12-28T14:36:19.880Z,2.60
2017-12-28T14:38:49.790Z,3.00
2017-12-28T14:41:18.989Z,6.40
2017-12-28T14:43:49.315Z,4.10
2017-12-28T14:46:18.825Z,2.70
2017-12-28T14:48:47.510Z,3.00
2017-12-28T14:51:17.476Z,3.40
2017-12-28T14:53:47.042Z,4.27
2017-12-28T14:56:16.337Z,5.40
2017-12-28T14:58:46.516Z,3.30
2017-12-28T15:01:16.155Z,15.47
2017-12-28T15:03:45.210Z,7.10
2017-12-28T15:06:15.383Z,3.30
2017-12-28T15:08:44.782Z,3.03
2017-12-28T15:11:14.598Z,3.13
2017-12-28T15:13:44.100Z,3.50
2017-12-28T15:16:14.117Z,5.00
2017-12-28T15:18:43.629Z,4.63
2017-12-28T15:21:13.812Z,3.60
2017-12-28T15:23:43.866Z,4.40
2017-12-28T15:26:13.539Z,2.70
2017-12-28T15:28:43.188Z,2.50
2017-12-28T15:31:13.150Z,3.70
2017-12-28T15:33:43.547Z,2.90
2017-12-28T15:36:13.027Z,2.60
2017-12-28T15:38:42.538Z,1.90
2017-12-28T15:41:12.450Z,2.47
2017-12-28T15:43:41.130Z,3.60
2017-12-28T15:46:10.643Z,4.63
2017-12-28T15:48:40.757Z,2.87
2017-12-28T15:51:10.881Z,2.57
2017-12-28T15:53:40.386Z,2.20
2017-12-28T15:56:10.398Z,3.57
2017-12-28T15:58:40.013Z,4.33
2017-12-28T16:01:10.241Z,1.80
2017-12-28T16:03:40.098Z,3.00
2017-12-28T16:06:09.911Z,3.00
2017-12-28T16:08:39.156Z,2.50
2017-12-28T16:11:09.380Z,1.93
2017-12-28T16:13:39.263Z,3.40
2017-12-28T16:16:09.414Z,3.60
2017-12-28T16:18:39.430Z,2.77
2017-12-28T16:21:08.832Z,2.70
2017-12-28T16:23:38.451Z,2.57
2017-12-28T16:26:08.626Z,3.00
2017-12-28T16:28:38.788Z,3.00
2017-12-28T16:31:08.709Z,4.67
2017-12-28T16:33:38.822Z,2.57
2017-12-28T16:36:07.970Z,3.80
2017-12-28T16:38:38.133Z,3.90
2017-12-28T16:41:07.479Z,4.07
2017-12-28T16:43:37.763Z,4.40
2017-12-28T16:46:07.786Z,4.20
2017-12-28T16:48:37.253Z,3.97
2017-12-28T16:51:07.403Z,4.20
2017-12-28T16:53:37.874Z,4.30
2017-12-28T16:56:08.163Z,4.17
2017-12-28T16:58:45.237Z,5.03
2017-12-28T17:01:14.024Z,4.70
2017-12-28T17:03:43.272Z,7.33
2017-12-28T17:06:13.446Z,4.33
2017-12-28T17:08:43.268Z,4.77
2017-12-28T17:11:12.868Z,4.60
2017-12-28T17:13:43.090Z,5.20
2017-12-28T17:16:12.497Z,6.23
2017-12-28T17:18:41.756Z,5.10
2017-12-28T17:21:11.414Z,7.63
2017-12-28T17:23:41.518Z,5.00
2017-12-28T17:26:11.821Z,4.97
2017-12-28T17:28:41.741Z,6.00
2017-12-28T17:31:11.777Z,6.00
2017-12-28T17:33:41.822Z,5.33
2017-12-28T17:36:11.706Z,5.83
2017-12-28T17:38:41.875Z,5.93
2017-12-28T17:41:12.153Z,5.27
2017-12-28T17:43:42.169Z,5.07
2017-12-28T17:46:12.190Z,4.43
2017-12-28T17:48:41.896Z,5.30
2017-12-28T17:51:12.121Z,4.70
2017-12-28T17:53:41.727Z,4.80
2017-12-28T17:56:11.807Z,4.87
2017-12-28T17:58:42.496Z,5.60
2017-12-28T18:01:13.111Z,4.90
2017-12-28T18:03:43.231Z,4.23
2017-12-28T18:06:13.246Z,4.77
2017-12-28T18:08:43.334Z,4.67
2017-12-28T18:11:12.549Z,4.53
2017-12-28T18:13:42.685Z,4.23
2017-12-28T18:16:12.605Z,4.73
2017-12-28T18:18:42.946Z,5.13
2017-12-28T18:21:13.776Z,5.90
2017-12-28T18:23:43.369Z,5.60
2017-12-28T18:26:13.284Z,4.63
2017-12-28T18:28:42.994Z,5.83
2017-12-28T18:31:13.215Z,5.83
2017-12-28T18:33:43.335Z,5.33
2017-12-28T18:36:13.969Z,6.30
2017-12-28T18:38:44.088Z,5.43
2017-12-28T18:41:13.799Z,6.17
2017-12-28T18:43:42.698Z,6.20
2017-12-28T18:46:11.894Z,8.23
2017-12-28T18:48:40.778Z,6.00
2017-12-28T18:51:11.498Z,6.00
2017-12-28T18:53:42.060Z,5.50
2017-12-28T18:56:12.194Z,7.07
2017-12-28T18:58:42.183Z,8.93
2017-12-28T19:01:11.788Z,5.77
2017-12-28T19:03:41.511Z,10.70
2017-12-28T19:06:10.507Z,6.80
2017-12-28T19:08:40.713Z,6.20
2017-12-28T19:11:10.836Z,6.07
2017-12-28T19:13:39.929Z,4.67
2017-12-28T19:16:10.575Z,5.53
2017-12-28T19:18:40.864Z,4.30
2017-12-28T19:21:11.731Z,5.20
2017-12-28T19:23:41.623Z,4.27
2017-12-28T19:26:11.361Z,5.07
2017-12-28T19:28:40.858Z,4.40
2017-12-28T19:31:09.970Z,4.23
2017-12-28T19:33:40.171Z,5.03
2017-12-28T19:36:10.292Z,5.10
2017-12-28T19:38:39.697Z,5.13
2017-12-28T19:41:10.128Z,6.53
2017-12-28T19:43:40.864Z,4.70
2017-12-28T19:46:10.563Z,7.10
2017-12-28T19:48:42.993Z,5.50
2017-12-28T19:51:12.650Z,6.60
2017-12-28T19:53:41.910Z,7.13
2017-12-28T19:56:11.964Z,7.60
2017-12-28T19:58:41.268Z,8.60
2017-12-28T20:01:10.429Z,8.97
2017-12-28T20:03:39.422Z,7.80
2017-12-28T20:06:09.476Z,9.97
2017-12-28T20:08:38.679Z,7.23
2017-12-28T20:11:08.279Z,6.60
2017-12-28T20:13:37.181Z,6.17
2017-12-28T20:16:06.270Z,10.30
2017-12-28T20:18:36.388Z,8.70
2017-12-28T20:21:06.608Z,7.67
2017-12-28T20:23:36.114Z,9.20
2017-12-28T20:26:05.005Z,8.07
2017-12-28T20:28:34.919Z,7.47
2017-12-28T20:31:05.454Z,7.77
2017-12-28T20:33:36.390Z,8.87
2017-12-28T20:36:05.383Z,7.30
2017-12-28T20:38:34.995Z,6.83
2017-12-28T20:41:04.197Z,6.27
2017-12-28T20:43:46.288Z,7.10
2017-12-28T20:46:15.796Z,5.97
2017-12-28T20:48:45.094Z,6.43
2017-12-28T20:51:14.605Z,25.57
2017-12-28T20:53:44.993Z,11.13
2017-12-28T20:56:15.461Z,6.07
2017-12-28T20:58:45.166Z,5.90
2017-12-28T21:01:14.321Z,7.00
2017-12-28T21:03:44.584Z,6.17
2017-12-28T21:06:14.704Z,6.50
2017-12-28T21:08:45.030Z,6.27
2017-12-28T21:11:14.481Z,6.60
2017-12-28T21:13:44.612Z,7.13
2017-12-28T21:16:13.244Z,7.90
2017-12-28T21:18:42.308Z,11.10
2017-12-28T21:21:12.352Z,8.03
2017-12-28T21:23:42.266Z,9.30
2017-12-28T21:26:11.924Z,8.73
2017-12-28T21:28:40.661Z,9.50
2017-12-28T21:31:10.783Z,7.80
2017-12-28T21:33:40.698Z,5.83
2017-12-28T21:36:10.409Z,5.43
2017-12-28T21:38:39.199Z,6.20
2017-12-28T21:41:08.086Z,7.83
2017-12-28T21:43:38.312Z,5.87
2017-12-28T21:46:07.096Z,6.60
2017-12-28T21:48:36.807Z,8.20
2017-12-28T21:51:06.930Z,8.13
2017-12-28T21:53:45.144Z,8.33
2017-12-28T21:56:13.824Z,5.77
2017-12-28T21:58:43.543Z,6.70
2017-12-28T22:01:13.142Z,5.93
2017-12-28T22:03:43.464Z,9.37
2017-12-28T22:06:12.358Z,5.90
2017-12-28T22:08:41.860Z,6.33
2017-12-28T22:11:10.649Z,4.90
2017-12-28T22:13:40.570Z,4.83
2017-12-28T22:16:09.353Z,4.97
2017-12-28T22:18:38.450Z,4.30
2017-12-28T22:21:07.749Z,4.17
2017-12-28T22:23:37.581Z,4.63
2017-12-28T22:26:07.989Z,5.33
2017-12-28T22:28:37.494Z,6.10
2017-12-28T22:31:07.572Z,5.03
2017-12-28T22:33:36.300Z,5.13
2017-12-28T22:36:04.989Z,6.13
2017-12-28T22:38:34.704Z,5.30
2017-12-28T22:41:04.050Z,5.40
2017-12-28T22:43:32.963Z,5.13
2017-12-28T22:46:01.739Z,5.47
2017-12-28T22:48:31.184Z,5.67
2017-12-28T22:51:00.792Z,5.93
2017-12-28T22:53:29.785Z,7.40
2017-12-28T22:55:59.699Z,5.60
2017-12-28T22:58:29.921Z,5.17
2017-12-28T23:00:58.610Z,5.93
2017-12-28T23:03:27.295Z,5.70
2017-12-28T23:05:55.978Z,6.50
2017-12-28T23:08:24.773Z,6.97
2017-12-28T23:10:53.454Z,5.80
2017-12-28T23:13:22.141Z,8.00
2017-12-28T23:15:50.933Z,4.80
2017-12-28T23:18:19.618Z,5.43
2017-12-28T23:20:48.408Z,6.10
2017-12-28T23:23:17.098Z,5.00
2017-12-28T23:25:46.300Z,4.47
2017-12-28T23:28:17.353Z,8.33
2017-12-28T23:30:46.219Z,5.10
2017-12-28T23:33:15.324Z,4.60
2017-12-28T23:35:44.374Z,4.83
2017-12-28T23:38:14.736Z,5.30
2017-12-28T23:40:44.350Z,4.93
2017-12-28T23:43:14.267Z,5.20
2017-12-28T23:45:44.086Z,4.57
2017-12-28T23:48:13.276Z,4.87
2017-12-28T23:50:42.208Z,6.50
2017-12-28T23:53:11.471Z,5.23
2017-12-28T23:55:41.906Z,4.87
2017-12-28T23:58:11.102Z,5.40
